Time;durP1;ratioP1;P1;durP2;ratioP2;P2;SDS_P1;SDS_P2;PMS_P1;PMS_P2;Temp;Humidity;BMP_temperature;BMP_pressure;BME280_temperature;BME280_humidity;BME280_pressure;Samples;Min_cycle;Max_cycle;Signal;HPM_P1;HPM_P2
2021/08/14 00:00:43;;;;;;;11.55;5.35;;;26.10;63.70;;;;;;5114036;28;20046;-49
2021/08/14 00:03:10;;;;;;;10.70;4.25;;;26.00;63.70;;;;;;5113745;28;20044;-47
2021/08/14 00:05:36;;;;;;;7.95;3.63;;;26.00;64.00;;;;;;5113573;28;20050;-47
2021/08/14 00:08:03;;;;;;;7.85;3.83;;;25.90;64.30;;;;;;5114164;27;20051;-47
2021/08/14 00:10:29;;;;;;;11.90;4.20;;;25.80;64.70;;;;;;5114172;28;20030;-47
2021/08/14 00:12:56;;;;;;;11.88;4.32;;;25.80;65.10;;;;;;5113310;28;20391;-48
2021/08/14 00:15:23;;;;;;;14.55;4.10;;;25.80;65.80;;;;;;5113870;28;20407;-47
2021/08/14 00:17:49;;;;;;;6.90;3.90;;;25.80;64.90;;;;;;5113845;28;20455;-56
2021/08/14 00:20:16;;;;;;;7.90;3.83;;;25.80;64.90;;;;;;5113437;28;20040;-49
2021/08/14 00:22:42;;;;;;;8.60;3.55;;;25.80;64.80;;;;;;5113270;28;20039;-48
2021/08/14 00:25:09;;;;;;;9.90;4.20;;;25.80;65.20;;;;;;5113297;28;20046;-50
2021/08/14 00:27:37;;;;;;;8.00;3.85;;;25.80;65.50;;;;;;5113756;27;20032;-52
2021/08/14 00:30:05;;;;;;;10.20;4.60;;;25.70;65.60;;;;;;5113057;28;20059;-47
2021/08/14 00:32:31;;;;;;;10.15;4.18;;;25.70;65.80;;;;;;5113654;28;20048;-48
2021/08/14 00:34:58;;;;;;;7.90;3.95;;;25.60;66.10;;;;;;5113169;28;20047;-47
2021/08/14 00:37:24;;;;;;;10.70;4.93;;;25.60;66.30;;;;;;5113173;28;20036;-47
2021/08/14 00:39:51;;;;;;;6.97;3.95;;;25.60;66.60;;;;;;5113499;28;20028;-56
2021/08/14 00:42:17;;;;;;;10.45;4.88;;;25.50;66.70;;;;;;5113256;28;20032;-52
2021/08/14 00:44:43;;;;;;;10.73;4.85;;;25.50;67.20;;;;;;5113755;28;20031;-50
2021/08/14 00:47:10;;;;;;;8.38;4.30;;;25.40;67.10;;;;;;5112968;28;20054;-48
2021/08/14 00:49:37;;;;;;;9.18;4.32;;;25.50;67.60;;;;;;5112775;28;20055;-49
2021/08/14 00:52:03;;;;;;;10.00;4.03;;;25.40;67.80;;;;;;5112862;28;20050;-49
2021/08/14 00:54:30;;;;;;;14.13;4.32;;;25.40;67.90;;;;;;5112773;28;20051;-51
2021/08/14 00:56:57;;;;;;;7.95;4.10;;;25.30;68.30;;;;;;5113460;28;20364;-53
2021/08/14 00:59:31;;;;;;;8.05;3.72;;;25.30;68.20;;;;;;5113411;28;20042;-49
2021/08/14 01:01:57;;;;;;;6.80;4.03;;;25.20;68.30;;;;;;5112799;28;20415;-51
2021/08/14 01:04:24;;;;;;;8.30;4.47;;;25.20;69.20;;;;;;5112620;28;20051;-52
2021/08/14 01:06:51;;;;;;;10.02;4.20;;;25.20;68.60;;;;;;5112791;28;20368;-51
2021/08/14 01:09:18;;;;;;;10.48;3.90;;;25.10;68.80;;;;;;5112309;28;20055;-51
2021/08/14 01:11:44;;;;;;;7.78;4.13;;;25.20;69.60;;;;;;5112693;28;20036;-46
2021/08/14 01:14:13;;;;;;;5.70;3.58;;;25.10;68.80;;;;;;5112310;28;20384;-49
2021/08/14 01:16:40;;;;;;;10.32;4.28;;;25.20;68.70;;;;;;5112735;28;20499;-46
2021/08/14 01:19:06;;;;;;;9.35;3.85;;;25.20;69.20;;;;;;5112697;28;20036;-50
2021/08/14 01:21:33;;;;;;;10.88;3.97;;;25.20;68.90;;;;;;5112790;28;20043;-47
2021/08/14 01:24:03;;;;;;;9.40;4.25;;;25.10;68.90;;;;;;5112750;28;20145;-48
2021/08/14 01:26:31;;;;;;;8.38;3.63;;;25.10;69.00;;;;;;5111112;28;20113;-50
2021/08/14 01:28:57;;;;;;;10.15;4.38;;;25.10;69.50;;;;;;5112558;28;20051;-50
2021/08/14 01:31:23;;;;;;;6.72;3.92;;;25.00;69.50;;;;;;5112606;28;20047;-51
2021/08/14 01:33:50;;;;;;;12.60;4.32;;;25.10;69.00;;;;;;5113020;28;20093;-51
2021/08/14 01:36:17;;;;;;;9.02;3.95;;;25.00;68.90;;;;;;5112003;28;20046;-48
2021/08/14 01:38:48;;;;;;;8.57;4.50;;;25.00;68.80;;;;;;5112043;28;20040;-47
2021/08/14 01:41:15;;;;;;;9.90;4.22;;;25.00;68.90;;;;;;5112946;28;20031;-50
2021/08/14 01:44:11;;;;;;;8.05;4.47;;;24.90;69.00;;;;;;5112272;28;20493;-50
2021/08/14 01:46:41;;;;;;;11.00;3.97;;;24.90;69.20;;;;;;5112026;28;20046;-55
2021/08/14 01:49:08;;;;;;;7.17;4.33;;;24.90;69.60;;;;;;5112203;28;20059;-50
2021/08/14 01:51:35;;;;;;;8.30;3.85;;;24.90;69.80;;;;;;5112362;28;20043;-52
2021/08/14 01:54:04;;;;;;;9.52;4.05;;;24.80;69.80;;;;;;5111989;28;20506;-53
2021/08/14 01:56:32;;;;;;;10.82;4.38;;;24.80;69.90;;;;;;5112717;28;20441;-54
2021/08/14 01:59:00;;;;;;;7.05;4.38;;;24.80;69.60;;;;;;5112371;28;20043;-46
2021/08/14 02:01:27;;;;;;;11.35;4.10;;;24.80;69.80;;;;;;5112155;28;20046;-54
2021/08/14 02:03:54;;;;;;;7.60;4.07;;;24.80;69.70;;;;;;5112580;28;20122;-52
2021/08/14 02:06:22;;;;;;;10.43;4.20;;;24.80;69.50;;;;;;5112835;28;20020;-47
2021/08/14 02:08:48;;;;;;;7.05;3.80;;;24.70;69.70;;;;;;5112923;28;20062;-48
2021/08/14 02:11:20;;;;;;;9.02;3.83;;;24.70;69.60;;;;;;5115753;28;20036;-52
2021/08/14 02:13:49;;;;;;;10.88;5.25;;;24.70;69.70;;;;;;5116440;28;20043;-51
2021/08/14 02:16:16;;;;;;;9.60;4.50;;;24.70;69.80;;;;;;5115700;28;20391;-49
2021/08/14 02:18:43;;;;;;;11.50;4.25;;;24.70;69.70;;;;;;5115754;28;20051;-50
2021/08/14 02:21:11;;;;;;;9.80;4.38;;;24.60;69.70;;;;;;5116322;28;20023;-48
2021/08/14 02:23:39;;;;;;;9.50;4.60;;;24.60;70.00;;;;;;5116422;28;20383;-49
2021/08/14 02:26:07;;;;;;;7.20;3.83;;;24.60;69.90;;;;;;5116628;28;20031;-50
2021/08/14 02:28:33;;;;;;;11.20;4.03;;;24.60;69.80;;;;;;5115643;28;20055;-51
2021/08/14 02:31:01;;;;;;;8.90;3.95;;;24.60;70.10;;;;;;5115221;28;20043;-47
2021/08/14 02:33:28;;;;;;;9.23;4.03;;;24.60;70.30;;;;;;5115095;28;20388;-48
2021/08/14 02:35:55;;;;;;;9.10;4.13;;;24.50;70.30;;;;;;5115307;28;20043;-47
2021/08/14 02:38:21;;;;;;;10.40;4.00;;;24.50;70.30;;;;;;5115912;28;20036;-51
2021/08/14 02:40:48;;;;;;;9.02;4.25;;;24.50;70.50;;;;;;5115427;28;20050;-52
2021/08/14 02:43:16;;;;;;;7.40;3.80;;;24.40;70.70;;;;;;5115791;28;20035;-52
2021/08/14 02:45:45;;;;;;;5.80;3.92;;;24.50;70.70;;;;;;5115498;28;20038;-47
2021/08/14 02:48:12;;;;;;;12.77;4.97;;;24.40;70.60;;;;;;5115575;28;20044;-49
2021/08/14 02:50:43;;;;;;;9.95;3.72;;;24.40;70.60;;;;;;5115739;28;20035;-50
2021/08/14 02:53:11;;;;;;;10.05;4.60;;;24.40;70.50;;;;;;5115011;28;20040;-54
2021/08/14 02:55:38;;;;;;;7.97;4.40;;;24.40;70.50;;;;;;5115240;28;20042;-52
2021/08/14 02:58:04;;;;;;;13.18;4.88;;;24.40;70.40;;;;;;5115866;28;20034;-53
2021/08/14 03:00:31;;;;;;;11.45;4.40;;;24.40;70.70;;;;;;5115043;28;20063;-52
2021/08/14 03:02:57;;;;;;;9.38;4.15;;;24.40;71.00;;;;;;5114927;28;20388;-47
2021/08/14 03:05:24;;;;;;;9.57;3.75;;;24.40;71.10;;;;;;5115810;28;20396;-49
2021/08/14 03:07:51;;;;;;;9.43;4.30;;;24.40;71.10;;;;;;5114667;28;20059;-52
2021/08/14 03:10:17;;;;;;;8.27;3.42;;;24.30;70.80;;;;;;5114932;28;20407;-47
2021/08/14 03:12:44;;;;;;;6.13;3.17;;;24.40;70.60;;;;;;5115015;28;20047;-47
2021/08/14 03:15:11;;;;;;;7.38;4.10;;;24.30;70.70;;;;;;5115115;28;20379;-51
2021/08/14 03:17:38;;;;;;;11.27;4.75;;;24.20;70.70;;;;;;5114941;28;20403;-48
2021/08/14 03:20:06;;;;;;;11.30;4.75;;;24.20;71.00;;;;;;5114485;28;20039;-48
2021/08/14 03:22:32;;;;;;;11.98;5.13;;;24.30;70.80;;;;;;5114195;28;20048;-49
2021/08/14 03:24:59;;;;;;;15.85;4.75;;;24.20;71.20;;;;;;5115019;28;20055;-49
2021/08/14 03:27:25;;;;;;;9.27;4.50;;;24.20;71.30;;;;;;5114995;27;20509;-47
2021/08/14 03:29:52;;;;;;;6.10;4.18;;;24.20;71.10;;;;;;5114585;28;20056;-49
2021/08/14 03:32:18;;;;;;;9.57;4.05;;;24.20;70.90;;;;;;5114347;28;20043;-49
2021/08/14 03:34:45;;;;;;;10.77;4.22;;;24.20;70.70;;;;;;5114319;28;20036;-46
2021/08/14 03:37:12;;;;;;;8.35;3.70;;;24.20;70.80;;;;;;5114318;28;20040;-53
2021/08/14 03:39:38;;;;;;;8.00;4.13;;;24.20;71.00;;;;;;5114381;28;20036;-50
2021/08/14 03:42:05;;;;;;;10.50;4.95;;;24.10;71.10;;;;;;5114100;28;20067;-48
2021/08/14 03:44:32;;;;;;;12.05;4.45;;;24.10;71.10;;;;;;5114524;28;20472;-47
2021/08/14 03:46:58;;;;;;;9.50;4.30;;;24.10;71.40;;;;;;5114712;28;20040;-49
2021/08/14 03:49:25;;;;;;;10.85;4.50;;;24.10;71.50;;;;;;5113877;28;20055;-49
2021/08/14 03:51:52;;;;;;;10.38;4.72;;;24.00;71.60;;;;;;5113954;28;20055;-46
2021/08/14 03:54:19;;;;;;;9.55;4.38;;;24.00;71.50;;;;;;5114760;28;20031;-49
2021/08/14 03:56:45;;;;;;;9.45;4.80;;;24.00;71.60;;;;;;5114599;28;20040;-51
2021/08/14 03:59:11;;;;;;;8.93;4.70;;;24.00;71.90;;;;;;5114380;28;20035;-52
2021/08/14 04:01:39;;;;;;;8.13;3.63;;;23.90;72.10;;;;;;5114010;28;20476;-52
2021/08/14 04:04:05;;;;;;;7.07;4.35;;;23.90;72.50;;;;;;5114329;28;20039;-54
2021/08/14 04:06:32;;;;;;;11.15;4.20;;;23.90;72.60;;;;;;5113685;28;20371;-49
2021/08/14 04:08:58;;;;;;;9.90;4.20;;;23.90;72.80;;;;;;5113469;28;20051;-54
2021/08/14 04:11:24;;;;;;;10.88;4.22;;;23.90;72.80;;;;;;5113939;28;20059;-49
2021/08/14 04:13:51;;;;;;;11.68;4.25;;;23.90;72.90;;;;;;5113322;28;20472;-48
2021/08/14 04:16:17;;;;;;;12.20;5.22;;;23.90;73.30;;;;;;5113858;28;20510;-47
2021/08/14 04:18:44;;;;;;;7.35;3.63;;;23.90;73.30;;;;;;5113498;28;20203;-50
2021/08/14 04:21:10;;;;;;;8.13;4.57;;;23.90;73.50;;;;;;5113873;28;20130;-49
2021/08/14 04:23:37;;;;;;;13.60;4.57;;;23.90;73.40;;;;;;5113306;28;20506;-51
2021/08/14 04:26:03;;;;;;;9.85;4.75;;;23.80;73.70;;;;;;5113364;28;20051;-49
2021/08/14 04:28:30;;;;;;;7.13;4.03;;;23.80;73.60;;;;;;5113004;28;20046;-50
2021/08/14 04:30:56;;;;;;;10.48;4.95;;;23.80;73.60;;;;;;5112274;28;20506;-49
2021/08/14 04:33:23;;;;;;;10.90;4.80;;;23.80;73.50;;;;;;5113207;28;20384;-51
2021/08/14 04:35:49;;;;;;;9.13;4.20;;;23.80;73.40;;;;;;5112777;28;20074;-49
2021/08/14 04:38:16;;;;;;;9.38;4.25;;;23.70;73.40;;;;;;5113541;28;20384;-50
2021/08/14 04:40:42;;;;;;;10.65;4.13;;;23.70;73.40;;;;;;5113409;28;20363;-48
2021/08/14 04:43:09;;;;;;;9.55;4.05;;;23.80;73.30;;;;;;5112888;28;20503;-51
2021/08/14 04:45:35;;;;;;;7.95;4.30;;;23.80;73.90;;;;;;5113547;28;20035;-48
2021/08/14 04:48:02;;;;;;;8.10;4.78;;;23.70;74.30;;;;;;5113408;28;20030;-51
2021/08/14 04:50:29;;;;;;;11.35;4.95;;;23.70;74.50;;;;;;5112632;28;20060;-47
2021/08/14 04:52:56;;;;;;;9.23;4.20;;;23.70;74.40;;;;;;5113372;28;20521;-52
2021/08/14 04:55:23;;;;;;;11.15;4.72;;;23.70;74.20;;;;;;5111361;27;20047;-49
2021/08/14 04:57:50;;;;;;;10.38;4.72;;;23.70;74.50;;;;;;5111450;28;20035;-49
2021/08/14 05:00:16;;;;;;;10.88;5.47;;;23.70;74.40;;;;;;5112688;28;20062;-47
2021/08/14 05:02:43;;;;;;;9.80;5.18;;;23.70;74.30;;;;;;5113720;28;20032;-48
2021/08/14 05:05:09;;;;;;;9.70;4.90;;;23.70;74.00;;;;;;5112720;28;20066;-55
2021/08/14 05:07:36;;;;;;;10.05;4.03;;;23.70;73.70;;;;;;5113382;28;20494;-50
2021/08/14 05:10:03;;;;;;;8.70;4.35;;;23.70;73.90;;;;;;5112288;28;20048;-47
2021/08/14 05:12:31;;;;;;;10.93;5.18;;;23.70;73.90;;;;;;5112325;28;20036;-51
2021/08/14 05:14:57;;;;;;;11.98;4.63;;;23.70;73.90;;;;;;5110779;28;20036;-47
2021/08/14 05:17:24;;;;;;;13.25;5.85;;;23.70;73.20;;;;;;5111296;28;20044;-48
2021/08/14 05:19:50;;;;;;;10.38;4.35;;;23.80;73.50;;;;;;5112370;28;20475;-49
2021/08/14 05:22:16;;;;;;;9.20;4.28;;;23.80;73.10;;;;;;5111899;28;20044;-47
2021/08/14 05:24:43;;;;;;;8.60;5.22;;;23.80;73.40;;;;;;5111939;28;20040;-47
2021/08/14 05:27:09;;;;;;;8.82;4.10;;;23.90;73.80;;;;;;5112382;28;20047;-47
2021/08/14 05:29:38;;;;;;;12.32;4.85;;;23.80;73.80;;;;;;5112995;28;20046;-50
2021/08/14 05:32:06;;;;;;;10.55;5.03;;;23.80;73.80;;;;;;5111933;28;20055;-47
2021/08/14 05:34:32;;;;;;;8.75;4.60;;;23.80;74.10;;;;;;5111939;28;20058;-50
2021/08/14 05:36:59;;;;;;;14.73;4.68;;;23.80;74.50;;;;;;5112542;28;20384;-51
2021/08/14 05:39:25;;;;;;;11.57;4.78;;;23.80;74.00;;;;;;5112346;28;20050;-52
2021/08/14 05:41:52;;;;;;;11.63;4.30;;;23.90;74.70;;;;;;5112700;28;20044;-49
2021/08/14 05:44:20;;;;;;;11.25;4.68;;;23.90;73.80;;;;;;5114050;27;20054;-46
2021/08/14 05:46:46;;;;;;;10.90;4.25;;;23.90;73.30;;;;;;5116798;28;20032;-46
2021/08/14 05:49:14;;;;;;;16.27;5.40;;;23.90;73.00;;;;;;5116818;28;20486;-49
2021/08/14 05:51:41;;;;;;;10.68;4.57;;;24.00;72.60;;;;;;5116301;28;20044;-51
2021/08/14 05:54:08;;;;;;;15.27;5.43;;;24.00;73.00;;;;;;5117131;28;20038;-50
2021/08/14 05:56:34;;;;;;;9.93;4.85;;;24.10;72.40;;;;;;5116354;28;20043;-47
2021/08/14 05:59:02;;;;;;;11.35;5.18;;;24.10;72.30;;;;;;5116584;28;20035;-52
2021/08/14 06:01:29;;;;;;;11.95;4.80;;;24.20;72.50;;;;;;5116211;28;20055;-49
2021/08/14 06:03:55;;;;;;;10.05;4.72;;;24.20;72.30;;;;;;5116593;28;20126;-50
2021/08/14 06:06:22;;;;;;;12.95;5.57;;;24.30;72.30;;;;;;5116074;28;20047;-47
2021/08/14 06:08:48;;;;;;;9.10;4.13;;;24.30;72.10;;;;;;5115400;28;20054;-52
2021/08/14 06:11:14;;;;;;;9.50;4.25;;;24.40;71.10;;;;;;5116536;28;20036;-48
2021/08/14 06:13:41;;;;;;;8.90;4.68;;;24.40;72.30;;;;;;5115888;28;20027;-48
2021/08/14 06:16:09;;;;;;;9.57;4.22;;;24.50;71.00;;;;;;5115202;28;20054;-53
2021/08/14 06:18:40;;;;;;;13.30;4.60;;;24.60;70.30;;;;;;5115230;28;20036;-47
2021/08/14 06:21:08;;;;;;;7.50;3.50;;;25.40;67.20;;;;;;5115664;28;20043;-48
2021/08/14 06:23:35;;;;;;;7.47;4.50;;;27.10;59.40;;;;;;5115979;28;20035;-49
2021/08/14 06:26:02;;;;;;;12.15;3.67;;;28.30;55.30;;;;;;5115621;28;20051;-49
2021/08/14 06:28:28;;;;;;;9.63;4.57;;;29.20;52.60;;;;;;5115495;28;20047;-48
2021/08/14 06:30:55;;;;;;;12.93;5.45;;;29.70;50.70;;;;;;5115531;28;20525;-48
2021/08/14 06:33:21;;;;;;;7.82;3.88;;;30.10;49.80;;;;;;5115318;28;20510;-46
2021/08/14 06:35:49;;;;;;;10.93;3.70;;;29.60;49.50;;;;;;5115321;28;20055;-49
2021/08/14 06:38:15;;;;;;;14.77;4.00;;;28.60;52.10;;;;;;5115004;28;20044;-61
2021/08/14 06:40:42;;;;;;;10.88;4.18;;;27.80;54.30;;;;;;5115540;28;20044;-50
2021/08/14 06:43:08;;;;;;;8.85;4.38;;;27.40;55.40;;;;;;5115921;28;20024;-50
2021/08/14 06:45:34;;;;;;;7.72;4.00;;;27.10;56.10;;;;;;5115077;28;20054;-52
2021/08/14 06:48:01;;;;;;;13.38;4.40;;;27.00;56.60;;;;;;5115258;28;20043;-53
2021/08/14 06:50:27;;;;;;;8.15;4.57;;;26.90;56.70;;;;;;5114386;28;20047;-48
2021/08/14 06:52:54;;;;;;;11.27;4.78;;;26.90;56.90;;;;;;5115332;28;20044;-48
2021/08/14 06:55:20;;;;;;;9.05;4.47;;;27.00;56.90;;;;;;5114198;28;20044;-51
2021/08/14 06:57:47;;;;;;;13.05;4.32;;;27.10;57.00;;;;;;5115794;28;20035;-50
2021/08/14 07:00:14;;;;;;;16.33;4.60;;;27.20;56.90;;;;;;5115091;28;20043;-48
2021/08/14 07:02:42;;;;;;;10.00;4.82;;;27.30;56.40;;;;;;5115565;28;20043;-47
2021/08/14 07:05:09;;;;;;;11.95;4.43;;;27.40;56.20;;;;;;5114524;28;20040;-52
2021/08/14 07:07:35;;;;;;;6.95;4.15;;;27.40;56.00;;;;;;5114574;28;20043;-51
2021/08/14 07:10:06;;;;;;;10.30;4.03;;;27.50;56.10;;;;;;5114438;28;20106;-50
2021/08/14 07:12:33;;;;;;;7.72;3.58;;;27.60;56.30;;;;;;5114917;28;20047;-51
2021/08/14 07:14:59;;;;;;;10.88;4.93;;;27.60;56.20;;;;;;5113690;28;20036;-51
2021/08/14 07:17:27;;;;;;;9.55;4.45;;;27.70;56.30;;;;;;5114314;28;20047;-50
2021/08/14 07:19:53;;;;;;;9.00;4.10;;;27.70;56.20;;;;;;5114494;28;20388;-51
2021/08/14 07:22:20;;;;;;;7.50;4.07;;;27.90;56.10;;;;;;5114807;28;20032;-49
2021/08/14 07:24:46;;;;;;;10.15;3.92;;;28.00;56.30;;;;;;5114476;28;20047;-48
2021/08/14 07:27:13;;;;;;;13.05;4.90;;;28.00;56.00;;;;;;5114984;28;20039;-50
2021/08/14 07:29:39;;;;;;;12.60;4.82;;;28.10;55.50;;;;;;5114109;28;20051;-49
2021/08/14 07:32:06;;;;;;;9.60;4.80;;;28.10;55.40;;;;;;5114593;28;20047;-51
2021/08/14 07:34:32;;;;;;;10.93;4.45;;;28.20;55.30;;;;;;5114886;27;20035;-51
2021/08/14 07:36:59;;;;;;;9.82;4.80;;;28.30;55.70;;;;;;5114544;28;20024;-49
2021/08/14 07:39:25;;;;;;;11.25;4.80;;;28.30;55.10;;;;;;5114290;28;20059;-49
2021/08/14 07:41:52;;;;;;;7.68;4.70;;;28.30;55.00;;;;;;5115001;28;20513;-51
2021/08/14 07:44:18;;;;;;;10.40;4.60;;;28.40;55.10;;;;;;5113902;28;20047;-49
2021/08/14 07:46:45;;;;;;;12.60;6.75;;;28.40;55.20;;;;;;5113725;28;20046;-50
2021/08/14 07:49:11;;;;;;;12.75;6.53;;;28.50;55.50;;;;;;5113959;28;20040;-55
2021/08/14 07:51:38;;;;;;;10.82;5.47;;;28.50;55.80;;;;;;5114358;28;20475;-50
2021/08/14 07:54:04;;;;;;;10.82;5.78;;;28.60;55.80;;;;;;5114376;28;20024;-53
2021/08/14 07:56:31;;;;;;;7.80;4.90;;;28.60;55.50;;;;;;5114043;28;20043;-52
2021/08/14 07:58:57;;;;;;;10.77;5.72;;;28.70;55.60;;;;;;5114440;28;20023;-53
2021/08/14 08:01:23;;;;;;;11.18;5.93;;;28.70;55.70;;;;;;5113990;28;20050;-51
2021/08/14 08:03:50;;;;;;;9.95;5.60;;;28.80;55.90;;;;;;5114047;28;20042;-51
2021/08/14 08:06:16;;;;;;;14.80;6.38;;;28.80;56.00;;;;;;5113059;28;20117;-50
2021/08/14 08:08:43;;;;;;;9.82;5.85;;;29.00;56.20;;;;;;5113523;28;20048;-52
2021/08/14 08:11:09;;;;;;;11.25;6.25;;;29.00;56.60;;;;;;5111427;28;20043;-54
2021/08/14 08:13:36;;;;;;;10.77;5.80;;;29.10;56.60;;;;;;5113471;28;20039;-53
2021/08/14 08:16:02;;;;;;;9.30;5.93;;;29.10;56.80;;;;;;5113983;28;20027;-56
2021/08/14 08:18:29;;;;;;;12.98;6.15;;;29.10;56.90;;;;;;5113636;28;20400;-53
2021/08/14 08:20:55;;;;;;;8.50;5.40;;;29.10;56.70;;;;;;5113761;28;20031;-50
2021/08/14 08:23:22;;;;;;;15.75;6.35;;;29.10;56.60;;;;;;5114061;28;20461;-48
2021/08/14 08:25:48;;;;;;;15.27;6.45;;;29.20;56.90;;;;;;5113371;28;20399;-48
2021/08/14 08:28:22;;;;;;;8.10;4.57;;;29.20;56.70;;;;;;5113252;28;20048;-48
2021/08/14 08:30:49;;;;;;;9.93;7.90;;;29.30;56.50;;;;;;5113154;28;20396;-52
2021/08/14 08:33:16;;;;;;;10.48;5.80;;;29.30;55.50;;;;;;5112513;28;20055;-49
2021/08/14 08:35:43;;;;;;;10.30;5.88;;;29.20;56.10;;;;;;5113336;28;20043;-55
2021/08/14 08:38:09;;;;;;;11.82;6.53;;;29.30;56.20;;;;;;5113199;28;20046;-50
2021/08/14 08:40:40;;;;;;;11.40;5.88;;;29.50;56.40;;;;;;5114278;28;20038;-47
2021/08/14 08:43:07;;;;;;;9.25;5.63;;;29.50;56.30;;;;;;5113075;28;20043;-48
2021/08/14 08:45:34;;;;;;;11.88;5.82;;;29.70;56.60;;;;;;5112412;28;20044;-49
2021/08/14 08:48:04;;;;;;;9.18;5.15;;;29.70;56.40;;;;;;5113199;28;20038;-49
2021/08/14 08:50:31;;;;;;;8.50;5.93;;;29.80;56.40;;;;;;5112901;28;20040;-49
2021/08/14 08:52:58;;;;;;;10.70;5.22;;;29.90;55.60;;;;;;5112999;28;20044;-46
2021/08/14 08:55:25;;;;;;;9.27;5.60;;;29.90;55.60;;;;;;5112777;28;20044;-56
2021/08/14 08:57:51;;;;;;;11.20;6.28;;;30.00;55.60;;;;;;5113314;28;20447;-51
2021/08/14 09:00:18;;;;;;;8.48;5.38;;;30.00;55.20;;;;;;5112545;28;20052;-50
2021/08/14 09:02:46;;;;;;;11.25;6.68;;;29.90;55.00;;;;;;5112440;28;20043;-54
2021/08/14 09:05:21;;;;;;;8.15;5.65;;;30.00;55.20;;;;;;5112548;28;20047;-48
2021/08/14 09:07:50;;;;;;;11.15;5.40;;;30.10;55.30;;;;;;5112915;28;20031;-53
2021/08/14 09:10:22;;;;;;;10.70;5.35;;;30.10;55.00;;;;;;5112624;28;20576;-54
2021/08/14 09:12:50;;;;;;;12.68;6.82;;;30.10;55.10;;;;;;5112290;28;20050;-55
2021/08/14 09:15:31;;;;;;;10.15;6.15;;;30.10;55.10;;;;;;5112485;28;20395;-50
2021/08/14 09:18:02;;;;;;;10.82;5.72;;;30.20;54.80;;;;;;5113082;28;20375;-51
2021/08/14 09:20:30;;;;;;;8.65;5.53;;;30.20;54.60;;;;;;5113001;28;20039;-49
2021/08/14 09:23:11;;;;;;;6.50;5.55;;;30.20;54.80;;;;;;5112284;28;20043;-53
2021/08/14 09:25:42;;;;;;;;;;;30.40;54.20;;;;;;5112696;28;20042;-48
2021/08/14 09:28:09;;;;;;;7.50;4.88;;;30.40;53.50;;;;;;5112841;28;19919;-48
2021/08/14 09:30:47;;;;;;;10.98;5.32;;;30.40;53.40;;;;;;5112095;28;20070;-52
2021/08/14 09:33:17;;;;;;;8.82;5.15;;;30.30;52.60;;;;;;5112569;28;20051;-54
2021/08/14 09:35:45;;;;;;;11.25;4.97;;;30.30;52.90;;;;;;5112363;28;20050;-53
2021/08/14 09:38:14;;;;;;;12.52;5.75;;;30.40;52.90;;;;;;5111676;28;20054;-54
2021/08/14 09:40:43;;;;;;;8.40;5.25;;;30.50;52.60;;;;;;5112001;28;20044;-55
2021/08/14 09:43:33;;;;;;;7.95;5.22;;;30.30;53.10;;;;;;5112155;28;20066;-53
2021/08/14 09:46:00;;;;;;;9.85;5.10;;;30.40;53.40;;;;;;5112029;28;20062;-51
2021/08/14 09:48:26;;;;;;;9.18;4.88;;;30.50;53.40;;;;;;5111754;28;20052;-50
2021/08/14 09:50:53;;;;;;;9.93;5.72;;;30.60;52.60;;;;;;5111672;28;20476;-53
2021/08/14 09:53:21;;;;;;;9.82;5.35;;;30.60;51.50;;;;;;5111769;28;20476;-49
2021/08/14 09:55:52;;;;;;;7.50;5.18;;;30.60;51.50;;;;;;5111625;28;20040;-51
2021/08/14 09:58:20;;;;;;;10.30;5.80;;;30.70;51.40;;;;;;5111609;28;20048;-50
2021/08/14 10:00:50;;;;;;;8.95;5.05;;;30.70;51.30;;;;;;5111722;28;20047;-56
2021/08/14 10:03:17;;;;;;;7.00;5.32;;;30.80;50.90;;;;;;5112832;28;20047;-55
2021/08/14 10:05:44;;;;;;;10.98;4.40;;;30.60;51.40;;;;;;5111777;28;20054;-50
2021/08/14 10:08:11;;;;;;;9.73;4.68;;;30.70;51.40;;;;;;5112009;28;20375;-49
2021/08/14 10:10:38;;;;;;;12.45;5.18;;;30.80;51.10;;;;;;5111724;28;20047;-53
2021/08/14 10:13:05;;;;;;;6.78;4.28;;;30.90;50.60;;;;;;5111757;28;20039;-49
2021/08/14 10:15:33;;;;;;;10.60;4.80;;;31.00;50.60;;;;;;5111232;28;20039;-52
2021/08/14 10:18:00;;;;;;;7.20;4.70;;;31.10;50.10;;;;;;5112512;28;20027;-52
2021/08/14 10:20:27;;;;;;;7.45;4.60;;;31.00;49.20;;;;;;5110828;28;20510;-53
2021/08/14 10:23:09;;;;;;;9.15;4.88;;;31.00;49.20;;;;;;5111928;28;20043;-55
2021/08/14 10:25:38;;;;;;;9.63;4.82;;;31.10;49.60;;;;;;5111845;28;20043;-51
2021/08/14 10:28:08;;;;;;;12.73;5.10;;;31.20;50.00;;;;;;5112157;28;20035;-51
2021/08/14 10:30:38;;;;;;;10.15;5.30;;;31.20;49.70;;;;;;5114285;28;20032;-50
2021/08/14 10:33:05;;;;;;;10.10;4.53;;;31.00;50.00;;;;;;5115637;28;20063;-56
2021/08/14 10:35:34;;;;;;;7.38;5.53;;;31.00;49.60;;;;;;5116081;28;20028;-60
2021/08/14 10:38:01;;;;;;;10.18;4.97;;;30.90;50.30;;;;;;5115439;28;20384;-55
2021/08/14 10:41:02;;;;;;;11.95;4.97;;;31.00;50.00;;;;;;5115275;28;20046;-55
2021/08/14 10:43:51;;;;;;;7.43;4.20;;;31.00;49.40;;;;;;5116281;28;20039;-52
2021/08/14 10:46:37;;;;;;;9.07;4.60;;;31.00;49.50;;;;;;5115088;28;20384;-52
2021/08/14 10:49:04;;;;;;;9.75;5.82;;;31.00;49.20;;;;;;5115218;28;20388;-49
2021/08/14 10:51:51;;;;;;;7.35;4.97;;;31.10;48.60;;;;;;5115187;28;20043;-55
2021/08/14 10:54:30;;;;;;;10.38;4.65;;;31.20;48.20;;;;;;5115259;28;20046;-54
2021/08/14 10:56:58;;;;;;;9.68;4.60;;;31.20;48.40;;;;;;5115107;28;20039;-52
2021/08/14 10:59:39;;;;;;;10.20;5.70;;;31.30;49.00;;;;;;5114791;28;20047;-51
2021/08/14 11:02:06;;;;;;;10.88;4.90;;;31.30;49.20;;;;;;5115048;28;20452;-48
2021/08/14 11:04:54;;;;;;;10.95;5.13;;;31.40;49.40;;;;;;5115847;28;20040;-55
2021/08/14 11:07:20;;;;;;;11.75;5.18;;;31.40;49.40;;;;;;5114927;28;20044;-53
2021/08/14 11:09:53;;;;;;;12.02;5.35;;;31.40;49.80;;;;;;5114331;28;20399;-55
2021/08/14 11:12:42;;;;;;;17.75;6.47;;;31.50;49.70;;;;;;5115044;28;20060;-55
2021/08/14 11:15:24;;;;;;;9.70;6.00;;;31.40;50.40;;;;;;5114518;28;20074;-55
2021/08/14 11:17:57;;;;;;;9.15;5.60;;;31.30;51.00;;;;;;5115456;27;20062;-54
2021/08/14 11:20:23;;;;;;;9.70;5.70;;;31.40;50.90;;;;;;5114806;28;20054;-53
2021/08/14 11:22:54;;;;;;;6.28;4.70;;;31.40;50.90;;;;;;5115104;28;20030;-49
2021/08/14 11:25:37;;;;;;;10.30;5.38;;;31.40;50.70;;;;;;5114597;28;20487;-53
2021/08/14 11:28:04;;;;;;;9.38;5.18;;;31.50;50.60;;;;;;5114193;28;20105;-51
2021/08/14 11:30:39;;;;;;;8.57;5.63;;;31.50;50.50;;;;;;5114384;28;20055;-55
2021/08/14 11:33:08;;;;;;;8.75;5.07;;;31.60;49.70;;;;;;5114945;28;20039;-53
2021/08/14 11:35:36;;;;;;;8.18;5.68;;;31.60;49.70;;;;;;5114847;28;20035;-52
2021/08/14 11:38:05;;;;;;;13.90;6.07;;;31.50;48.90;;;;;;5114455;28;20585;-54
2021/08/14 11:40:37;;;;;;;8.95;5.60;;;31.40;49.00;;;;;;5114530;28;20035;-56
2021/08/14 11:43:09;;;;;;;8.27;4.85;;;31.40;49.10;;;;;;5114320;28;20039;-54
2021/08/14 11:45:38;;;;;;;11.32;5.13;;;31.60;48.90;;;;;;5114563;28;20052;-54
2021/08/14 11:48:08;;;;;;;8.23;4.60;;;31.60;48.20;;;;;;5114387;28;20036;-53
2021/08/14 11:50:49;;;;;;;10.73;6.22;;;31.70;48.50;;;;;;5114251;28;20054;-50
2021/08/14 11:53:28;;;;;;;8.80;4.95;;;31.50;48.80;;;;;;5114613;28;20024;-50
2021/08/14 11:56:05;;;;;;;6.40;4.60;;;31.60;48.80;;;;;;5114215;28;20046;-54
2021/08/14 11:58:31;;;;;;;12.05;5.20;;;31.80;48.70;;;;;;5114185;28;20429;-49
2021/08/14 12:00:58;;;;;;;12.32;6.28;;;31.90;48.60;;;;;;5114023;28;20044;-53
2021/08/14 12:03:26;;;;;;;10.68;6.57;;;31.90;48.90;;;;;;5113879;28;20043;-51
2021/08/14 12:06:04;;;;;;;11.15;5.70;;;31.90;49.10;;;;;;5112400;28;20039;-55
2021/08/14 12:08:34;;;;;;;8.73;5.30;;;31.90;48.60;;;;;;5113926;28;20031;-55
2021/08/14 12:11:08;;;;;;;9.30;5.32;;;31.90;49.10;;;;;;5113630;28;20404;-54
2021/08/14 12:13:36;;;;;;;11.93;5.82;;;31.90;48.50;;;;;;5114517;28;20368;-51
2021/08/14 12:16:14;;;;;;;12.15;5.85;;;32.00;48.60;;;;;;5113752;28;20047;-53
2021/08/14 12:18:43;;;;;;;7.35;5.43;;;32.10;48.50;;;;;;5113529;28;20040;-52
2021/08/14 12:21:11;;;;;;;13.05;5.93;;;32.10;48.50;;;;;;5113480;28;20054;-53
2021/08/14 12:23:40;;;;;;;9.70;6.40;;;32.10;48.60;;;;;;5113701;28;20035;-50
2021/08/14 12:26:22;;;;;;;12.57;5.80;;;31.90;48.90;;;;;;5113725;28;20040;-53
2021/08/14 12:29:02;;;;;;;8.95;6.18;;;32.10;49.00;;;;;;5113944;28;20024;-54
2021/08/14 12:31:29;;;;;;;9.35;5.35;;;32.10;48.50;;;;;;5113823;28;20523;-54
2021/08/14 12:33:58;;;;;;;9.60;6.32;;;32.30;48.30;;;;;;5113405;28;20044;-55
2021/08/14 12:37:03;;;;;;;9.63;6.55;;;32.30;48.20;;;;;;5113547;28;20042;-53
2021/08/14 12:39:57;;;;;;;8.82;5.95;;;32.40;48.30;;;;;;5094572;28;20125;-51
2021/08/14 12:42:29;;;;;;;12.95;6.30;;;32.40;48.30;;;;;;5113534;27;20044;-52
2021/08/14 12:44:58;;;;;;;9.00;6.22;;;32.40;48.00;;;;;;5113450;28;20040;-56
2021/08/14 12:47:26;;;;;;;7.72;5.65;;;32.50;48.00;;;;;;5113920;28;20044;-54
2021/08/14 12:50:08;;;;;;;9.35;5.80;;;32.50;47.60;;;;;;5113266;28;20047;-54